Time;durP1;ratioP1;P1;durP2;ratioP2;P2;SDS_P1;SDS_P2;PMS_P1;PMS_P2;Temp;Humidity;BMP_temperature;BMP_pressure;BME280_temperature;BME280_humidity;BME280_pressure;Samples;Min_cycle;Max_cycle;Signal;HPM_P1;HPM_P2
2022/07/30 00:00:43;;;;;;;16.90;11.63;;;17.70;99.90;;;;;;5024270;28;20091;-62
2022/07/30 00:03:09;;;;;;;14.40;10.93;;;17.70;99.90;;;;;;5045906;28;20037;-62
2022/07/30 00:05:37;;;;;;;16.27;12.23;;;17.60;99.90;;;;;;5055045;28;20036;-61
2022/07/30 00:08:03;;;;;;;16.63;10.65;;;17.60;99.90;;;;;;5036872;28;20109;-62
2022/07/30 00:10:29;;;;;;;14.90;12.05;;;17.60;99.90;;;;;;5054861;28;20041;-62
2022/07/30 00:12:56;;;;;;;18.88;12.43;;;17.60;99.90;;;;;;5041429;28;20513;-63
2022/07/30 00:15:22;;;;;;;15.90;11.32;;;17.60;99.90;;;;;;5036909;28;20088;-65
2022/07/30 00:17:49;;;;;;;18.17;11.93;;;17.60;99.90;;;;;;5020134;28;20075;-62
2022/07/30 00:20:15;;;;;;;15.88;11.65;;;17.60;99.90;;;;;;5036968;28;20048;-62
2022/07/30 00:22:40;;;;;;;15.95;11.93;;;17.60;99.90;;;;;;5005575;28;20041;-62
2022/07/30 00:25:06;;;;;;;15.50;11.23;;;17.50;99.90;;;;;;5020577;28;20048;-62
2022/07/30 00:27:34;;;;;;;15.63;10.77;;;17.50;99.90;;;;;;5036515;28;20123;-61
2022/07/30 00:30:00;;;;;;;12.45;11.02;;;17.40;99.90;;;;;;5037035;28;20437;-62
2022/07/30 00:32:26;;;;;;;15.77;11.73;;;17.50;99.90;;;;;;5030267;28;20041;-62
2022/07/30 00:34:52;;;;;;;16.73;11.45;;;17.40;99.90;;;;;;5036732;28;20036;-62
2022/07/30 00:37:17;;;;;;;18.00;12.50;;;17.40;99.90;;;;;;5036460;28;20064;-62
2022/07/30 00:39:43;;;;;;;14.60;11.60;;;17.40;99.90;;;;;;5036963;28;20040;-62
2022/07/30 00:42:12;;;;;;;12.68;11.23;;;17.30;99.90;;;;;;5012287;28;20037;-62
2022/07/30 00:44:37;;;;;;;23.02;11.82;;;17.30;99.90;;;;;;5008345;28;20041;-61
2022/07/30 00:47:03;;;;;;;14.40;11.57;;;17.30;99.90;;;;;;5034677;28;20037;-63
2022/07/30 00:49:29;;;;;;;15.15;11.93;;;17.30;99.90;;;;;;5035321;28;20374;-61
2022/07/30 00:51:54;;;;;;;15.13;12.02;;;17.30;99.90;;;;;;4995320;28;20129;-62
2022/07/30 00:54:20;;;;;;;13.15;11.18;;;17.20;99.90;;;;;;5024916;28;20090;-63
2022/07/30 00:56:47;;;;;;;20.10;12.07;;;17.20;99.90;;;;;;5036154;28;20037;-61
2022/07/30 00:59:13;;;;;;;16.80;11.25;;;17.20;99.90;;;;;;5036356;28;20391;-61
2022/07/30 01:01:39;;;;;;;18.27;11.70;;;17.10;99.90;;;;;;5010368;28;20072;-61
2022/07/30 01:04:10;;;;;;;16.88;12.00;;;17.10;99.90;;;;;;5001764;28;20120;-62
2022/07/30 01:06:39;;;;;;;14.65;11.85;;;17.10;99.90;;;;;;5036190;28;20342;-62
2022/07/30 01:09:06;;;;;;;16.10;11.48;;;17.10;99.90;;;;;;5036198;28;20052;-62
2022/07/30 01:11:36;;;;;;;16.27;12.15;;;17.10;99.90;;;;;;5027643;28;20087;-62
2022/07/30 01:14:07;;;;;;;16.27;11.73;;;17.00;99.90;;;;;;5032747;28;20055;-61
2022/07/30 01:16:33;;;;;;;14.82;10.93;;;17.10;99.90;;;;;;5019023;28;20381;-61
2022/07/30 01:21:59;;;;;;;13.90;10.85;;;17.00;99.90;;;;;;5043214;28;20045;-61
2022/07/30 01:24:37;;;;;;;13.10;10.75;;;17.00;99.90;;;;;;5033941;28;20115;-62
2022/07/30 01:27:05;;;;;;;14.45;11.15;;;17.00;99.90;;;;;;5010471;28;20106;-61
2022/07/30 01:29:32;;;;;;;15.13;11.05;;;17.00;99.90;;;;;;5005860;28;20067;-61
2022/07/30 01:32:00;;;;;;;15.02;11.48;;;17.00;99.90;;;;;;5012952;28;20069;-62
2022/07/30 01:34:31;;;;;;;14.57;10.90;;;17.00;99.90;;;;;;5035540;28;20060;-61
2022/07/30 01:37:00;;;;;;;16.10;11.88;;;16.90;99.90;;;;;;5018756;28;20035;-62
2022/07/30 01:39:26;;;;;;;18.35;10.80;;;16.90;99.90;;;;;;5019656;28;20052;-62
2022/07/30 01:41:54;;;;;;;16.85;11.30;;;16.90;99.90;;;;;;5045353;28;20461;-62
2022/07/30 01:44:22;;;;;;;14.90;10.82;;;16.90;99.90;;;;;;5053120;28;20339;-62
2022/07/30 01:46:47;;;;;;;17.52;11.68;;;16.90;99.90;;;;;;5021097;28;20386;-62
2022/07/30 01:49:16;;;;;;;17.10;11.90;;;16.90;99.90;;;;;;5019033;28;20040;-61
2022/07/30 01:51:46;;;;;;;19.42;13.07;;;16.90;99.90;;;;;;5020460;28;20079;-61
2022/07/30 01:54:13;;;;;;;17.33;12.68;;;16.90;99.90;;;;;;5035221;28;20638;-62
2022/07/30 01:56:41;;;;;;;25.85;14.55;;;16.90;99.90;;;;;;5052621;28;20370;-62
2022/07/30 01:59:09;;;;;;;19.15;13.77;;;16.90;99.90;;;;;;5035341;28;20067;-61
2022/07/30 02:01:35;;;;;;;19.80;13.30;;;16.90;99.90;;;;;;5010148;28;20477;-62
2022/07/30 02:04:02;;;;;;;18.75;12.73;;;16.90;99.90;;;;;;5050664;28;20028;-62
2022/07/30 02:06:39;;;;;;;26.60;14.32;;;16.90;99.90;;;;;;5010482;28;20038;-62
2022/07/30 02:09:07;;;;;;;21.75;13.82;;;16.90;99.90;;;;;;5015505;28;20045;-62
2022/07/30 02:14:32;;;;;;;22.48;14.20;;;16.80;99.90;;;;;;5031654;28;20056;-62
2022/07/30 02:17:01;;;;;;;16.42;12.77;;;16.80;99.90;;;;;;5031534;28;20099;-61
2022/07/30 02:19:38;;;;;;;20.38;13.90;;;16.80;99.90;;;;;;5032173;28;20025;-64
2022/07/30 02:22:09;;;;;;;21.63;13.25;;;16.80;99.90;;;;;;5012759;28;20079;-61
2022/07/30 02:24:37;;;;;;;20.17;12.38;;;16.70;99.90;;;;;;5034519;28;20154;-62
2022/07/30 02:27:09;;;;;;;17.92;12.77;;;16.70;99.90;;;;;;5031937;28;20166;-62
2022/07/30 02:29:36;;;;;;;20.30;12.65;;;16.70;99.90;;;;;;4996426;28;20048;-61
2022/07/30 02:32:11;;;;;;;16.83;12.23;;;16.60;99.90;;;;;;4997644;28;20050;-62
2022/07/30 02:34:39;;;;;;;17.92;12.10;;;16.60;99.90;;;;;;5031436;28;20045;-62
2022/07/30 02:37:07;;;;;;;15.65;12.15;;;16.60;99.90;;;;;;5031309;28;20040;-62
2022/07/30 02:39:33;;;;;;;18.65;11.95;;;16.60;99.90;;;;;;5031574;28;20469;-61
2022/07/30 02:42:03;;;;;;;17.60;13.15;;;16.60;99.90;;;;;;4996078;28;20053;-61
2022/07/30 02:44:30;;;;;;;17.08;13.20;;;16.60;99.90;;;;;;5031444;28;20034;-62
2022/07/30 02:46:57;;;;;;;18.95;13.30;;;16.50;99.90;;;;;;5013566;28;20556;-62
2022/07/30 02:49:25;;;;;;;15.38;11.73;;;16.40;99.90;;;;;;5012313;28;20490;-63
2022/07/30 02:51:51;;;;;;;17.85;12.68;;;16.50;99.90;;;;;;5012964;28;20469;-63
2022/07/30 02:54:19;;;;;;;14.73;11.38;;;16.50;99.90;;;;;;5034209;28;20033;-63
2022/07/30 02:56:47;;;;;;;21.02;12.38;;;16.40;99.90;;;;;;5032764;28;20041;-62
2022/07/30 02:59:14;;;;;;;19.38;11.80;;;16.50;99.90;;;;;;4999789;28;20030;-63
2022/07/30 03:01:42;;;;;;;15.45;11.07;;;16.50;99.90;;;;;;5014659;28;20050;-62
2022/07/30 03:04:09;;;;;;;15.55;11.13;;;16.50;99.90;;;;;;5026155;28;20052;-62
2022/07/30 03:06:36;;;;;;;13.65;10.32;;;16.50;99.90;;;;;;5020534;28;20096;-62
2022/07/30 03:09:03;;;;;;;14.55;9.55;;;16.50;99.90;;;;;;5000956;28;20037;-62
2022/07/30 03:11:30;;;;;;;14.82;11.18;;;16.40;99.90;;;;;;5019088;28;20466;-61
2022/07/30 03:13:56;;;;;;;16.90;10.93;;;16.50;99.90;;;;;;5025383;28;20103;-61
2022/07/30 03:16:25;;;;;;;17.17;10.82;;;16.40;99.90;;;;;;5021065;28;20054;-62
2022/07/30 03:18:54;;;;;;;13.45;10.20;;;16.40;99.90;;;;;;5024764;28;20117;-62
2022/07/30 03:21:24;;;;;;;17.17;10.52;;;16.40;99.90;;;;;;5026828;28;20513;-61
2022/07/30 03:23:53;;;;;;;15.48;9.70;;;16.40;99.90;;;;;;5020336;28;20041;-62
2022/07/30 03:26:20;;;;;;;16.02;10.13;;;16.40;99.90;;;;;;5007561;28;20045;-61
2022/07/30 03:28:47;;;;;;;13.07;9.60;;;16.40;99.90;;;;;;5038328;28;20068;-62
2022/07/30 03:31:15;;;;;;;14.70;9.32;;;16.40;99.90;;;;;;5050929;28;20357;-62
2022/07/30 03:33:42;;;;;;;12.82;9.10;;;16.40;99.90;;;;;;5055474;28;20532;-61
2022/07/30 03:36:12;;;;;;;16.60;9.23;;;16.40;99.90;;;;;;5031310;28;20057;-61
2022/07/30 03:38:41;;;;;;;14.00;9.45;;;16.40;99.90;;;;;;5052959;28;20037;-62
2022/07/30 03:41:09;;;;;;;12.98;9.35;;;16.40;99.90;;;;;;5033951;28;20041;-61
2022/07/30 03:43:35;;;;;;;12.88;8.90;;;16.30;99.90;;;;;;5035127;28;20044;-61
2022/07/30 03:46:02;;;;;;;12.82;7.72;;;16.40;99.90;;;;;;5037437;28;20067;-61
2022/07/30 03:48:29;;;;;;;13.10;8.38;;;16.40;99.90;;;;;;5055263;28;20080;-61
2022/07/30 03:50:55;;;;;;;12.25;8.48;;;16.40;99.90;;;;;;5053028;28;20470;-61
2022/07/30 03:53:23;;;;;;;10.98;8.60;;;16.40;99.90;;;;;;5031708;28;20035;-61
2022/07/30 03:55:50;;;;;;;12.02;8.50;;;16.50;99.90;;;;;;5037518;28;20041;-62
2022/07/30 03:58:19;;;;;;;16.33;8.68;;;16.50;99.90;;;;;;5055430;28;20095;-61
2022/07/30 04:00:50;;;;;;;12.52;9.02;;;16.40;99.90;;;;;;5055540;28;20043;-61
2022/07/30 04:03:26;;;;;;;16.83;9.15;;;16.40;99.90;;;;;;5009824;28;20125;-61
2022/07/30 04:05:52;;;;;;;13.93;9.07;;;16.50;99.90;;;;;;5000911;28;20045;-62
2022/07/30 04:08:18;;;;;;;14.20;9.57;;;16.50;99.90;;;;;;5028292;28;20033;-61
2022/07/30 04:10:44;;;;;;;19.00;9.80;;;16.40;99.90;;;;;;5020672;28;20037;-62
2022/07/30 04:13:09;;;;;;;13.02;8.73;;;16.50;99.90;;;;;;5025852;28;20076;-62
2022/07/30 04:15:44;;;;;;;13.65;9.80;;;16.50;99.90;;;;;;5036538;28;20049;-61
2022/07/30 04:18:12;;;;;;;16.08;9.13;;;16.50;99.90;;;;;;5045883;28;20045;-62
2022/07/30 04:20:43;;;;;;;14.77;9.35;;;16.50;99.90;;;;;;5001301;28;20045;-61
2022/07/30 04:23:11;;;;;;;18.33;9.90;;;16.50;99.90;;;;;;5023787;28;20037;-61
2022/07/30 04:25:40;;;;;;;15.05;9.30;;;16.50;99.90;;;;;;5036970;28;20048;-62
2022/07/30 04:28:07;;;;;;;17.15;10.55;;;16.50;99.90;;;;;;5037092;28;20040;-62
2022/07/30 04:30:33;;;;;;;15.75;10.10;;;16.50;99.90;;;;;;5037006;28;20184;-62
2022/07/30 04:33:00;;;;;;;14.77;9.77;;;16.50;99.90;;;;;;5031758;28;20132;-62
2022/07/30 04:35:27;;;;;;;14.18;10.07;;;16.50;99.90;;;;;;5023266;28;20592;-62
2022/07/30 04:37:53;;;;;;;13.18;9.80;;;16.50;99.90;;;;;;5036904;28;20041;-62
2022/07/30 04:40:19;;;;;;;19.30;11.02;;;16.60;99.90;;;;;;5037072;28;20029;-63
2022/07/30 04:42:45;;;;;;;13.52;9.40;;;16.60;99.90;;;;;;5030709;28;20479;-63
2022/07/30 04:45:11;;;;;;;14.82;10.13;;;16.60;99.90;;;;;;5020289;28;20381;-61
2022/07/30 04:47:39;;;;;;;12.60;8.80;;;16.60;99.90;;;;;;5036281;28;20416;-61
2022/07/30 04:50:06;;;;;;;13.60;10.55;;;16.70;99.90;;;;;;5054045;28;20525;-62
2022/07/30 04:52:33;;;;;;;14.05;9.40;;;16.70;99.90;;;;;;5046281;28;20049;-62
2022/07/30 04:55:04;;;;;;;13.68;9.57;;;16.70;99.90;;;;;;5036879;28;20111;-62
2022/07/30 04:57:30;;;;;;;15.07;9.48;;;16.80;99.90;;;;;;5019915;28;20456;-61
2022/07/30 04:59:57;;;;;;;13.60;9.20;;;16.80;99.90;;;;;;5036442;28;20107;-61
2022/07/30 05:02:28;;;;;;;16.60;8.95;;;17.00;99.90;;;;;;5021779;28;20037;-64
2022/07/30 05:04:56;;;;;;;15.98;9.30;;;17.20;99.90;;;;;;5036717;28;20437;-62
2022/07/30 05:07:22;;;;;;;12.98;8.30;;;17.50;99.90;;;;;;5035804;28;20033;-61
2022/07/30 05:09:48;;;;;;;13.57;8.50;;;17.80;99.90;;;;;;5019864;28;20041;-61
2022/07/30 05:12:14;;;;;;;13.25;8.18;;;18.30;99.90;;;;;;5025055;28;20045;-61
2022/07/30 05:14:40;;;;;;;13.50;7.78;;;18.90;99.90;;;;;;5035848;28;20041;-62
2022/07/30 05:17:06;;;;;;;11.52;7.72;;;19.20;99.90;;;;;;5006001;28;20100;-62
2022/07/30 05:19:32;;;;;;;11.63;7.82;;;19.40;99.90;;;;;;5035603;28;20480;-62
2022/07/30 05:21:58;;;;;;;15.48;7.45;;;19.20;99.90;;;;;;5007459;28;20502;-62
2022/07/30 05:24:25;;;;;;;16.35;7.00;;;19.10;99.90;;;;;;5019471;28;20430;-61
2022/07/30 05:26:51;;;;;;;12.23;7.28;;;19.10;99.90;;;;;;5035448;28;20048;-62
2022/07/30 05:29:17;;;;;;;13.52;8.30;;;19.50;99.90;;;;;;5035931;28;20045;-63
2022/07/30 05:31:43;;;;;;;13.95;7.43;;;19.80;99.90;;;;;;5015144;28;20052;-63
2022/07/30 05:34:10;;;;;;;16.38;7.90;;;20.20;99.90;;;;;;5035800;28;20029;-63
2022/07/30 05:36:35;;;;;;;10.43;7.05;;;20.60;99.90;;;;;;5034442;28;20057;-62
2022/07/30 05:39:01;;;;;;;15.00;7.00;;;21.10;99.90;;;;;;5036011;28;20041;-63
2022/07/30 05:41:27;;;;;;;11.40;7.03;;;21.50;99.90;;;;;;5004512;28;20627;-63
2022/07/30 05:43:53;;;;;;;12.20;6.65;;;21.90;99.90;;;;;;5002665;28;20052;-62
2022/07/30 05:46:19;;;;;;;10.82;6.43;;;22.10;99.90;;;;;;5035332;28;20045;-63
2022/07/30 05:48:45;;;;;;;9.52;5.93;;;22.30;99.90;;;;;;5002738;28;20039;-63
2022/07/30 05:51:10;;;;;;;11.60;6.10;;;22.80;99.90;;;;;;5032085;28;20056;-62
2022/07/30 05:53:37;;;;;;;15.50;6.65;;;23.00;99.90;;;;;;5031246;28;20040;-63
2022/07/30 05:56:04;;;;;;;11.55;7.05;;;23.40;99.90;;;;;;5010544;28;20056;-63
2022/07/30 05:58:29;;;;;;;9.52;6.72;;;23.40;99.90;;;;;;4984214;28;20446;-62
2022/07/30 06:00:55;;;;;;;14.52;6.75;;;23.40;99.90;;;;;;5014618;28;20120;-63
2022/07/30 06:03:21;;;;;;;11.98;7.28;;;23.70;99.90;;;;;;4981581;28;20430;-63
2022/07/30 06:05:47;;;;;;;14.18;7.10;;;23.70;99.90;;;;;;5014491;28;20417;-63
2022/07/30 06:08:14;;;;;;;13.07;6.88;;;23.80;99.90;;;;;;5031697;28;20762;-62
2022/07/30 06:10:40;;;;;;;11.05;6.65;;;24.00;99.90;;;;;;5012932;28;20043;-63
2022/07/30 06:13:10;;;;;;;13.77;7.07;;;23.80;99.90;;;;;;5011984;28;20037;-63
2022/07/30 06:15:35;;;;;;;10.82;6.25;;;23.80;99.90;;;;;;4997545;28;20041;-63
2022/07/30 06:18:01;;;;;;;13.82;6.60;;;24.10;99.90;;;;;;5031923;28;20103;-63
2022/07/30 06:20:27;;;;;;;8.82;5.60;;;24.00;99.90;;;;;;5031921;28;20469;-64
2022/07/30 06:22:53;;;;;;;10.40;5.45;;;24.20;99.90;;;;;;5008360;28;20454;-63
2022/07/30 06:25:19;;;;;;;10.15;4.82;;;24.40;99.90;;;;;;5014516;28;20037;-63
2022/07/30 06:27:44;;;;;;;10.93;5.30;;;24.70;99.90;;;;;;5014757;28;20072;-63
2022/07/30 06:30:10;;;;;;;9.05;5.50;;;24.60;99.90;;;;;;5031744;28;20061;-63
2022/07/30 06:32:36;;;;;;;11.57;5.45;;;24.20;99.90;;;;;;4996894;28;20084;-63
2022/07/30 06:35:02;;;;;;;12.30;6.10;;;23.90;99.90;;;;;;4981581;28;20370;-63
2022/07/30 06:37:28;;;;;;;11.50;6.10;;;24.00;99.90;;;;;;4997910;28;20041;-64
2022/07/30 06:39:54;;;;;;;10.57;5.57;;;23.90;99.90;;;;;;5014338;28;20462;-63
2022/07/30 06:42:20;;;;;;;14.43;6.50;;;23.90;99.90;;;;;;4997088;28;20037;-62
2022/07/30 06:44:46;;;;;;;14.20;7.05;;;24.00;99.90;;;;;;4997978;28;20142;-64
2022/07/30 06:47:18;;;;;;;11.85;6.60;;;23.70;99.90;;;;;;4978689;28;20097;-63
2022/07/30 06:49:43;;;;;;;14.60;6.10;;;23.90;99.90;;;;;;4998338;28;20099;-62
2022/07/30 06:52:10;;;;;;;13.27;6.15;;;24.10;99.90;;;;;;5013559;28;20037;-63
2022/07/30 06:54:39;;;;;;;15.20;6.55;;;23.90;99.90;;;;;;4999572;28;20048;-63
2022/07/30 06:57:05;;;;;;;13.32;5.80;;;23.90;99.90;;;;;;4998503;28;20038;-61
2022/07/30 06:59:36;;;;;;;12.32;6.35;;;23.40;99.90;;;;;;5016893;28;20049;-63
2022/07/30 07:02:02;;;;;;;11.57;5.70;;;22.90;99.90;;;;;;5013681;28;20042;-63
2022/07/30 07:04:28;;;;;;;14.40;6.45;;;22.70;99.90;;;;;;5014826;28;20373;-62
2022/07/30 07:06:54;;;;;;;13.88;6.47;;;22.40;99.90;;;;;;5014048;28;20453;-62
2022/07/30 07:09:20;;;;;;;15.57;6.78;;;22.10;99.90;;;;;;5014655;28;20052;-64
2022/07/30 07:11:45;;;;;;;13.45;5.82;;;22.10;99.90;;;;;;5011790;28;20040;-63
2022/07/30 07:14:11;;;;;;;10.48;5.78;;;22.00;99.90;;;;;;5014421;28;20127;-62
2022/07/30 07:16:37;;;;;;;9.60;5.57;;;21.60;99.90;;;;;;5013801;28;20049;-65
2022/07/30 07:19:02;;;;;;;14.50;6.15;;;21.40;99.90;;;;;;4997981;28;20417;-62
2022/07/30 07:21:28;;;;;;;11.75;5.75;;;21.70;99.90;;;;;;4994964;28;20458;-62
2022/07/30 07:23:54;;;;;;;10.43;5.03;;;21.80;99.90;;;;;;5023061;28;20037;-62
2022/07/30 07:26:20;;;;;;;9.90;4.82;;;22.00;99.90;;;;;;5033866;28;20045;-62
2022/07/30 07:28:45;;;;;;;10.00;4.43;;;22.20;99.90;;;;;;5026918;28;20046;-62
2022/07/30 07:31:11;;;;;;;7.65;4.10;;;22.10;99.90;;;;;;5025061;28;20041;-63
2022/07/30 07:33:39;;;;;;;8.43;4.22;;;21.80;99.90;;;;;;5016879;28;20420;-62
2022/07/30 07:36:05;;;;;;;7.55;4.43;;;21.80;99.90;;;;;;5005723;28;20034;-63
2022/07/30 07:38:31;;;;;;;10.88;4.70;;;22.00;99.90;;;;;;5031593;28;20359;-62
2022/07/30 07:40:57;;;;;;;12.20;4.40;;;22.20;99.90;;;;;;5020147;28;20829;-63
2022/07/30 07:43:24;;;;;;;9.18;3.78;;;22.20;99.90;;;;;;5010820;28;20413;-63
2022/07/30 07:45:50;;;;;;;9.38;4.28;;;22.10;99.90;;;;;;4997086;28;20136;-63
2022/07/30 07:48:17;;;;;;;7.85;4.07;;;21.90;99.90;;;;;;5013586;28;20029;-62
2022/07/30 07:50:43;;;;;;;9.98;3.95;;;21.90;99.90;;;;;;5006277;28;20520;-63
2022/07/30 07:53:11;;;;;;;6.40;3.30;;;22.10;99.90;;;;;;4991957;28;20029;-62
2022/07/30 07:55:37;;;;;;;8.02;3.53;;;22.10;99.90;;;;;;5013392;28;20050;-62
2022/07/30 07:58:03;;;;;;;8.63;4.20;;;22.00;99.90;;;;;;4997490;28;20042;-62
2022/07/30 08:00:29;;;;;;;6.78;3.50;;;21.90;99.90;;;;;;5017205;28;20037;-62
2022/07/30 08:02:55;;;;;;;8.48;3.80;;;21.80;99.90;;;;;;5000857;28;20132;-62
2022/07/30 08:05:20;;;;;;;8.70;3.80;;;21.80;99.90;;;;;;5017117;28;20363;-62
2022/07/30 08:07:46;;;;;;;8.25;3.30;;;21.90;99.90;;;;;;5000847;28;20068;-62
2022/07/30 08:10:14;;;;;;;9.35;3.53;;;21.90;99.90;;;;;;4998575;28;20046;-60
2022/07/30 08:12:43;;;;;;;9.10;3.92;;;22.00;99.90;;;;;;5012863;28;20068;-61
2022/07/30 08:15:12;;;;;;;7.10;3.10;;;22.10;99.90;;;;;;5023692;28;20559;-62
2022/07/30 08:17:44;;;;;;;6.65;3.13;;;22.20;99.90;;;;;;5025023;28;20033;-62
2022/07/30 08:20:13;;;;;;;6.25;3.10;;;22.30;99.90;;;;;;5016811;28;20045;-63
2022/07/30 08:22:40;;;;;;;7.00;3.38;;;22.40;99.90;;;;;;4998177;28;20076;-63
2022/07/30 08:25:06;;;;;;;7.35;3.03;;;22.50;99.90;;;;;;5000321;28;20037;-62
2022/07/30 08:27:32;;;;;;;5.03;2.65;;;22.70;99.90;;;;;;5009732;28;20077;-62
2022/07/30 08:30:01;;;;;;;8.40;3.40;;;22.50;99.90;;;;;;5014724;28;20124;-63
2022/07/30 08:32:27;;;;;;;7.43;2.75;;;22.40;99.90;;;;;;5022636;28;20084;-62
2022/07/30 08:34:54;;;;;;;9.85;2.80;;;22.40;99.90;;;;;;5015983;28;20073;-62
2022/07/30 08:37:20;;;;;;;5.68;2.50;;;22.50;99.90;;;;;;5038734;28;20040;-62
2022/07/30 08:39:45;;;;;;;6.38;2.95;;;22.60;99.90;;;;;;5034388;28;20041;-62
2022/07/30 08:42:12;;;;;;;6.78;2.88;;;22.70;99.90;;;;;;5031073;28;20064;-62
2022/07/30 08:44:40;;;;;;;6.20;2.60;;;22.80;99.90;;;;;;5041910;28;20456;-62
2022/07/30 08:47:10;;;;;;;7.05;2.92;;;22.70;99.90;;;;;;5029571;28;20512;-62
2022/07/30 08:49:36;;;;;;;7.28;2.72;;;22.50;99.90;;;;;;5034086;28;20474;-62
2022/07/30 08:52:07;;;;;;;6.50;2.60;;;22.50;99.90;;;;;;5025253;28;20661;-63
2022/07/30 08:54:34;;;;;;;7.78;2.80;;;22.40;99.90;;;;;;5034037;28;20041;-63
2022/07/30 08:56:59;;;;;;;9.82;2.97;;;22.40;99.90;;;;;;5003745;28;20037;-62
2022/07/30 08:59:32;;;;;;;7.50;3.00;;;22.40;99.90;;;;;;5033045;28;20508;-63
2022/07/30 09:02:02;;;;;;;11.10;3.35;;;22.50;99.90;;;;;;5000184;28;20525;-64
2022/07/30 09:04:27;;;;;;;7.47;3.45;;;22.60;99.90;;;;;;5006130;28;20473;-63
2022/07/30 09:06:56;;;;;;;12.05;3.15;;;22.60;99.90;;;;;;5027605;28;20072;-62
2022/07/30 09:09:22;;;;;;;7.20;3.08;;;22.70;99.90;;;;;;5023171;28;20431;-63
2022/07/30 09:11:47;;;;;;;7.40;2.90;;;22.70;99.90;;;;;;5018159;28;20485;-63
2022/07/30 09:14:14;;;;;;;7.90;2.90;;;22.70;99.90;;;;;;5023829;28;20163;-63
2022/07/30 09:16:42;;;;;;;6.55;3.15;;;22.80;99.90;;;;;;5013400;28;20041;-63
2022/07/30 09:19:15;;;;;;;9.25;3.53;;;22.80;99.90;;;;;;5002075;28;20045;-63
2022/07/30 09:21:41;;;;;;;12.80;3.45;;;22.80;99.90;;;;;;5027915;28;20042;-63
2022/07/30 09:24:10;;;;;;;9.20;3.58;;;22.70;99.90;;;;;;5002569;28;20077;-64
2022/07/30 09:26:56;;;;;;;4.80;2.72;;;22.70;99.90;;;;;;5030890;28;20041;-63
2022/07/30 09:29:27;;;;;;;8.30;3.70;;;22.80;99.90;;;;;;5018602;28;20083;-63
2022/07/30 09:31:54;;;;;;;10.07;3.63;;;22.80;99.90;;;;;;5016676;28;20040;-63
2022/07/30 09:34:30;;;;;;;8.35;3.00;;;22.80;99.90;;;;;;5019484;28;20029;-63
2022/07/30 09:37:00;;;;;;;8.82;3.05;;;22.90;99.90;;;;;;5000445;28;20039;-62
2022/07/30 09:39:28;;;;;;;10.55;3.55;;;23.10;99.90;;;;;;5010590;28;20044;-64
2022/07/30 09:41:57;;;;;;;6.40;3.05;;;23.30;99.90;;;;;;5001208;28;20057;-64
2022/07/30 09:44:28;;;;;;;8.20;2.92;;;23.40;99.90;;;;;;5025960;28;20526;-62
2022/07/30 09:46:55;;;;;;;10.88;3.15;;;23.70;99.90;;;;;;5018403;28;20044;-62
2022/07/30 09:49:24;;;;;;;6.90;2.88;;;23.70;99.90;;;;;;5053373;28;20408;-62
2022/07/30 09:51:51;;;;;;;7.13;2.95;;;23.80;99.90;;;;;;5013350;28;20037;-62
2022/07/30 09:54:17;;;;;;;7.47;2.90;;;23.70;99.90;;;;;;5035375;28;20460;-62
2022/07/30 09:56:44;;;;;;;7.63;3.08;;;23.80;99.90;;;;;;5035071;28;20051;-62
2022/07/30 09:59:26;;;;;;;9.27;3.22;;;23.80;99.90;;;;;;4991110;28;20037;-62
2022/07/30 10:01:54;;;;;;;10.20;2.97;;;23.80;99.90;;;;;;5038013;28;20538;-63
2022/07/30 10:04:38;;;;;;;5.93;2.80;;;23.70;99.90;;;;;;5008152;28;20040;-63
2022/07/30 10:07:15;;;;;;;;;;;23.70;99.90;;;;;;5051668;28;20080;-62
2022/07/30 10:09:44;;;;;;;8.25;2.40;;;23.70;99.90;;;;;;5023372;28;19927;-62
2022/07/30 10:12:12;;;;;;;9.25;3.05;;;23.60;99.90;;;;;;5025935;28;20038;-62
2022/07/30 10:14:42;;;;;;;5.90;2.60;;;23.70;99.90;;;;;;5034618;28;20041;-62
2022/07/30 10:17:08;;;;;;;8.38;2.53;;;23.70;99.90;;;;;;5018494;28;20048;-64
2022/07/30 10:19:35;;;;;;;4.63;2.40;;;23.80;99.90;;;;;;5018298;28;20067;-62
2022/07/30 10:22:02;;;;;;;8.02;2.47;;;23.90;99.90;;;;;;5026526;28;20437;-63
2022/07/30 10:24:30;;;;;;;5.60;2.13;;;24.00;99.90;;;;;;5012060;28;20055;-62
2022/07/30 10:26:56;;;;;;;5.40;2.45;;;23.90;99.90;;;;;;5034513;28;20044;-62
2022/07/30 10:29:22;;;;;;;6.40;2.47;;;23.70;99.90;;;;;;5035222;28;20044;-62
2022/07/30 10:31:49;;;;;;;6.30;2.45;;;23.60;99.90;;;;;;5028920;28;20450;-62
2022/07/30 10:34:16;;;;;;;7.18;2.45;;;23.70;99.90;;;;;;5025182;28;20412;-62
2022/07/30 10:36:51;;;;;;;3.63;2.30;;;23.80;99.90;;;;;;5034388;28;20028;-62
2022/07/30 10:39:23;;;;;;;7.95;2.63;;;23.90;99.90;;;;;;5034857;28;20488;-62
2022/07/30 10:42:40;;;;;;;6.97;2.60;;;23.80;99.90;;;;;;5014950;28;20067;-62
2022/07/30 10:45:40;;;;;;;6.85;2.53;;;23.70;99.90;;;;;;5018509;28;20045;-62
2022/07/30 10:48:06;;;;;;;6.50;2.50;;;23.70;99.90;;;;;;5027330;28;20048;-62
2022/07/30 10:50:53;;;;;;;7.00;2.50;;;23.70;99.90;;;;;;5017964;28;20040;-63
2022/07/30 10:53:46;;;;;;;6.53;2.83;;;23.70;99.90;;;;;;5029408;28;20106;-63
2022/07/30 10:56:20;;;;;;;5.87;2.30;;;23.50;99.90;;;;;;5034083;28;20033;-63
2022/07/30 10:59:09;;;;;;;4.82;2.05;;;23.40;99.90;;;;;;5017724;28;20037;-63
2022/07/30 11:01:47;;;;;;;3.55;2.13;;;23.40;99.90;;;;;;5030359;28;20429;-63
2022/07/30 11:04:23;;;;;;;5.72;2.50;;;23.40;99.90;;;;;;5033413;28;20075;-63
2022/07/30 11:06:49;;;;;;;6.40;2.38;;;23.50;99.90;;;;;;5033936;28;20406;-63
2022/07/30 11:09:35;;;;;;;5.55;2.50;;;23.50;99.90;;;;;;5003970;28;20127;-62
2022/07/30 11:12:03;;;;;;;4.53;2.20;;;23.60;99.90;;;;;;5026442;28;20042;-62
2022/07/30 11:14:47;;;;;;;6.88;2.00;;;23.70;99.60;;;;;;5014092;28;20045;-63
2022/07/30 11:17:15;;;;;;;5.32;2.38;;;23.80;99.40;;;;;;5028155;28;20056;-62
2022/07/30 11:20:06;;;;;;;6.57;2.28;;;23.90;99.80;;;;;;5034389;28;20473;-63
2022/07/30 11:22:43;;;;;;;4.13;2.22;;;24.00;99.90;;;;;;5019094;28;20454;-62
2022/07/30 11:25:21;;;;;;;6.97;2.38;;;24.10;98.50;;;;;;5034269;28;20064;-62
2022/07/30 11:27:51;;;;;;;4.88;2.17;;;23.90;99.00;;;;;;5034151;28;20082;-62
2022/07/30 11:30:17;;;;;;;6.10;2.78;;;23.90;99.30;;;;;;5034012;28;20044;-62
2022/07/30 11:32:49;;;;;;;5.55;2.65;;;23.80;99.50;;;;;;5009863;28;20338;-62
2022/07/30 11:35:24;;;;;;;6.68;2.47;;;23.80;99.60;;;;;;5034610;28;20040;-63
2022/07/30 11:37:59;;;;;;;5.75;2.33;;;23.90;99.90;;;;;;5038003;28;20029;-66
2022/07/30 11:40:29;;;;;;;7.40;2.55;;;24.00;99.90;;;;;;5037799;28;20090;-63
2022/07/30 11:43:14;;;;;;;5.22;2.30;;;24.00;99.90;;;;;;5035144;28;20033;-63
2022/07/30 11:45:42;;;;;;;6.03;2.40;;;24.10;99.60;;;;;;5037567;28;20037;-62
2022/07/30 11:48:10;;;;;;;5.05;2.20;;;24.00;99.70;;;;;;5037860;28;20052;-62
2022/07/30 11:50:37;;;;;;;5.53;2.35;;;24.00;99.80;;;;;;5021178;28;20059;-62
2022/07/30 11:53:05;;;;;;;5.03;2.00;;;24.00;99.50;;;;;;5032850;28;20073;-63
2022/07/30 11:55:35;;;;;;;6.85;2.17;;;23.90;99.40;;;;;;5037079;28;20083;-62
2022/07/30 11:58:03;;;;;;;4.35;1.85;;;23.80;98.30;;;;;;5038116;28;20423;-62
2022/07/30 12:00:40;;;;;;;5.78;2.20;;;23.90;98.10;;;;;;5037560;28;20390;-62
2022/07/30 12:03:18;;;;;;;4.78;1.90;;;24.10;98.40;;;;;;5031101;28;20047;-62
2022/07/30 12:05:45;;;;;;;4.47;2.28;;;24.30;98.30;;;;;;5037189;28;20049;-62
2022/07/30 12:08:13;;;;;;;13.38;2.63;;;24.20;98.40;;;;;;5036966;28;20432;-62
2022/07/30 12:10:39;;;;;;;4.35;2.30;;;24.30;98.70;;;;;;5021071;28;20037;-62
2022/07/30 12:13:14;;;;;;;2.85;2.10;;;24.30;98.10;;;;;;5029470;28;20179;-63
2022/07/30 12:15:43;;;;;;;5.78;1.90;;;24.40;97.80;;;;;;5036515;28;20057;-63
2022/07/30 12:18:12;;;;;;;4.28;2.03;;;24.30;96.80;;;;;;5037172;28;20049;-62
2022/07/30 12:20:39;;;;;;;2.55;1.30;;;24.40;96.60;;;;;;5020882;28;20098;-62
2022/07/30 12:23:12;;;;;;;4.45;1.60;;;24.40;94.80;;;;;;5011181;28;20112;-63
2022/07/30 12:25:40;;;;;;;7.70;2.10;;;24.50;94.60;;;;;;5020528;28;20057;-62
2022/07/30 12:28:06;;;;;;;2.58;1.20;;;24.60;93.00;;;;;;5037306;28;20106;-64
2022/07/30 12:30:31;;;;;;;2.58;1.55;;;24.70;92.20;;;;;;5037410;28;20396;-62
2022/07/30 12:32:57;;;;;;;3.67;1.52;;;24.70;91.50;;;;;;5022379;28;20480;-62
2022/07/30 12:35:50;;;;;;;3.40;1.40;;;24.60;92.30;;;;;;5048139;28;20037;-64
2022/07/30 12:38:17;;;;;;;2.00;1.30;;;24.70;93.00;;;;;;5021798;28;20038;-62
2022/07/30 12:41:00;;;;;;;5.90;1.40;;;24.80;93.30;;;;;;5036825;28;20436;-62
2022/07/30 12:43:49;;;;;;;3.58;1.50;;;24.70;93.90;;;;;;5034001;28;20045;-64
2022/07/30 12:46:20;;;;;;;2.38;1.33;;;24.50;94.00;;;;;;5036227;28;20075;-63
2022/07/30 12:48:49;;;;;;;3.88;1.50;;;24.50;94.20;;;;;;5036525;28;20456;-62
2022/07/30 12:51:15;;;;;;;6.35;1.70;;;24.50;94.70;;;;;;5017937;28;20458;-62